Time;durP1;ratioP1;P1;durP2;ratioP2;P2;SDS_P1;SDS_P2;PMS_P1;PMS_P2;Temp;Humidity;BMP_temperature;BMP_pressure;BME280_temperature;BME280_humidity;BME280_pressure;Samples;Min_cycle;Max_cycle;Signal;HPM_P1;HPM_P2
2024/04/03 00:00:32;;;;;;;1.42;1.08;;;10.50;85.70;;;;;;5033119;28;20087;-68
2024/04/03 00:02:58;;;;;;;1.77;0.90;;;10.50;85.50;;;;;;5033382;28;20028;-68
2024/04/03 00:05:23;;;;;;;1.95;1.00;;;10.50;86.10;;;;;;5037510;28;20029;-68
2024/04/03 00:07:51;;;;;;;4.40;1.30;;;10.50;86.10;;;;;;5037432;28;20056;-68
2024/04/03 00:10:17;;;;;;;1.50;0.95;;;10.50;86.10;;;;;;5032666;28;20041;-68
2024/04/03 00:12:42;;;;;;;1.65;1.25;;;10.50;86.90;;;;;;5030702;28;20025;-68
2024/04/03 00:15:08;;;;;;;1.20;1.00;;;10.50;87.10;;;;;;5028711;28;20030;-68
2024/04/03 00:17:33;;;;;;;7.13;1.33;;;10.50;87.40;;;;;;5037024;28;20021;-68
2024/04/03 00:19:59;;;;;;;2.35;1.30;;;10.50;87.20;;;;;;5039150;28;20060;-68
2024/04/03 00:22:24;;;;;;;2.95;1.30;;;10.50;88.20;;;;;;5039006;28;20496;-68
2024/04/03 00:24:50;;;;;;;2.67;1.45;;;10.50;88.00;;;;;;5038570;28;20511;-67
2024/04/03 00:27:16;;;;;;;2.42;1.40;;;10.50;89.10;;;;;;5038340;28;20017;-68
2024/04/03 00:29:45;;;;;;;3.67;1.75;;;10.50;89.10;;;;;;5038382;28;20297;-67
2024/04/03 00:32:11;;;;;;;2.33;1.67;;;10.40;90.00;;;;;;5039249;28;20029;-68
2024/04/03 00:34:36;;;;;;;2.45;1.45;;;10.40;90.30;;;;;;5039404;28;20031;-67
2024/04/03 00:37:02;;;;;;;3.33;1.80;;;10.40;90.50;;;;;;5040703;28;20492;-68
2024/04/03 00:39:27;;;;;;;3.75;1.98;;;10.40;91.00;;;;;;5034709;28;20098;-68
2024/04/03 00:41:53;;;;;;;2.80;1.48;;;10.40;92.10;;;;;;5038027;28;20063;-68
2024/04/03 00:44:18;;;;;;;2.80;1.77;;;10.40;92.20;;;;;;5038903;28;20052;-68
2024/04/03 00:46:44;;;;;;;3.22;1.55;;;10.30;92.50;;;;;;5039140;28;20032;-67
2024/04/03 00:49:10;;;;;;;3.55;1.73;;;10.30;93.80;;;;;;5041105;28;20021;-67
2024/04/03 00:51:37;;;;;;;2.60;1.83;;;10.20;94.60;;;;;;5036459;28;20094;-68
2024/04/03 00:54:03;;;;;;;3.63;1.77;;;10.20;95.70;;;;;;5039391;28;20036;-68
2024/04/03 00:56:29;;;;;;;4.15;2.15;;;10.20;95.60;;;;;;5035252;28;20025;-68
2024/04/03 00:58:54;;;;;;;3.00;1.70;;;10.20;95.70;;;;;;5038634;28;20112;-68
2024/04/03 01:01:20;;;;;;;5.28;1.90;;;10.10;96.30;;;;;;5033928;28;20060;-67
2024/04/03 01:03:45;;;;;;;5.90;2.30;;;10.10;96.80;;;;;;5033138;28;20397;-68
2024/04/03 01:06:11;;;;;;;3.95;2.03;;;10.10;97.20;;;;;;5032513;28;20029;-67
2024/04/03 01:08:36;;;;;;;2.80;2.10;;;10.10;97.40;;;;;;5034684;28;20025;-68
2024/04/03 01:11:02;;;;;;;6.35;2.40;;;10.10;97.80;;;;;;5034696;28;20120;-68
2024/04/03 01:13:28;;;;;;;3.00;2.50;;;10.10;99.20;;;;;;5030430;28;20036;-67
2024/04/03 01:16:01;;;;;;;3.42;2.13;;;10.10;98.30;;;;;;5034498;28;20024;-67
2024/04/03 01:18:30;;;;;;;5.45;2.10;;;10.10;98.70;;;;;;5032464;28;20367;-67
2024/04/03 01:20:55;;;;;;;4.95;2.20;;;10.00;98.50;;;;;;5034680;28;20448;-67
2024/04/03 01:23:24;;;;;;;3.00;2.15;;;10.10;99.90;;;;;;5039479;28;20420;-68
2024/04/03 01:25:50;;;;;;;2.80;2.20;;;10.00;99.90;;;;;;5037167;28;20033;-68
2024/04/03 01:28:21;;;;;;;3.25;2.53;;;10.00;99.90;;;;;;5038310;28;20045;-67
2024/04/03 01:30:46;;;;;;;5.85;2.47;;;10.00;99.80;;;;;;5036559;28;20079;-68
2024/04/03 01:33:12;;;;;;;4.65;2.22;;;10.00;99.90;;;;;;5038556;28;20032;-68
2024/04/03 01:35:38;;;;;;;4.20;2.30;;;10.00;99.90;;;;;;5038749;28;20080;-68
2024/04/03 01:38:03;;;;;;;4.50;2.65;;;9.90;99.90;;;;;;5042654;28;20028;-68
2024/04/03 01:40:29;;;;;;;5.45;3.17;;;9.90;99.90;;;;;;5040205;28;20096;-68
2024/04/03 01:42:54;;;;;;;3.53;2.60;;;9.90;99.90;;;;;;5042185;28;20523;-68
2024/04/03 01:45:20;;;;;;;3.67;1.92;;;9.90;99.90;;;;;;5044294;28;20033;-68
2024/04/03 01:47:46;;;;;;;3.45;2.30;;;9.90;99.90;;;;;;5043502;28;20033;-68
2024/04/03 01:50:17;;;;;;;4.68;2.45;;;9.90;99.90;;;;;;5042182;28;20036;-68
2024/04/03 01:52:43;;;;;;;6.22;2.83;;;10.00;99.90;;;;;;5042261;28;20017;-68
2024/04/03 01:55:08;;;;;;;5.32;2.40;;;9.90;99.90;;;;;;5042297;28;20025;-67
2024/04/03 01:57:34;;;;;;;4.45;2.17;;;10.00;99.90;;;;;;5042080;28;20040;-68
2024/04/03 01:59:59;;;;;;;5.28;2.83;;;10.00;99.90;;;;;;5038354;28;20025;-67
2024/04/03 02:02:24;;;;;;;5.00;2.40;;;10.00;99.90;;;;;;5040094;28;20564;-68
2024/04/03 02:04:50;;;;;;;4.50;2.45;;;10.00;99.90;;;;;;5037967;28;20033;-69
2024/04/03 02:07:15;;;;;;;7.68;2.92;;;10.00;99.90;;;;;;5038070;28;20029;-68
2024/04/03 02:09:41;;;;;;;4.82;2.60;;;10.00;99.90;;;;;;5053248;28;20036;-68
2024/04/03 02:12:07;;;;;;;4.43;2.47;;;10.00;99.90;;;;;;5053036;28;20040;-68
2024/04/03 02:14:32;;;;;;;3.50;2.42;;;10.00;99.90;;;;;;5037831;28;20057;-68
2024/04/03 02:16:58;;;;;;;5.07;3.08;;;10.10;99.90;;;;;;5043845;28;20021;-68
2024/04/03 02:19:24;;;;;;;6.07;3.22;;;10.00;99.90;;;;;;5034488;28;20025;-68
2024/04/03 02:21:49;;;;;;;9.80;3.22;;;10.00;99.90;;;;;;5033107;28;20017;-68
2024/04/03 02:24:15;;;;;;;5.47;3.20;;;10.00;99.90;;;;;;5040580;28;20116;-68
2024/04/03 02:26:40;;;;;;;4.13;3.00;;;10.00;99.90;;;;;;5040135;28;20017;-68
2024/04/03 02:29:06;;;;;;;4.55;3.67;;;9.90;99.90;;;;;;5039147;28;20178;-68
2024/04/03 02:31:32;;;;;;;3.92;2.80;;;9.90;99.90;;;;;;5037773;28;20432;-67
2024/04/03 02:33:57;;;;;;;8.95;2.90;;;10.00;99.90;;;;;;5039717;28;20493;-68
2024/04/03 02:36:23;;;;;;;6.15;2.90;;;9.90;99.90;;;;;;5036362;28;20025;-68
2024/04/03 02:38:48;;;;;;;7.80;3.63;;;9.90;99.90;;;;;;5036446;28;20021;-68
2024/04/03 02:41:15;;;;;;;5.35;2.80;;;9.90;99.90;;;;;;5037177;28;20013;-68
2024/04/03 02:43:40;;;;;;;4.65;3.55;;;9.90;99.90;;;;;;5036710;28;20067;-68
2024/04/03 02:46:06;;;;;;;5.90;3.08;;;9.90;99.90;;;;;;5034267;28;20111;-66
2024/04/03 02:48:31;;;;;;;5.65;2.58;;;10.00;99.90;;;;;;5045035;28;20033;-66
2024/04/03 02:51:05;;;;;;;4.70;2.92;;;10.00;99.90;;;;;;5033337;28;20033;-54
2024/04/03 02:53:33;;;;;;;5.13;3.10;;;10.00;99.90;;;;;;5034537;28;20029;-52
2024/04/03 02:56:06;;;;;;;5.63;3.00;;;9.90;99.90;;;;;;5038935;28;20489;-55
2024/04/03 02:58:36;;;;;;;4.78;3.20;;;9.90;99.90;;;;;;5040091;28;20041;-55
2024/04/03 03:01:03;;;;;;;6.78;3.25;;;9.90;99.90;;;;;;5041210;28;20178;-56
2024/04/03 03:03:29;;;;;;;4.93;3.60;;;9.90;99.90;;;;;;5038246;28;20033;-53
2024/04/03 03:05:56;;;;;;;6.35;3.22;;;9.90;99.90;;;;;;5040683;28;20025;-54
2024/04/03 03:08:21;;;;;;;6.10;2.88;;;9.90;99.90;;;;;;5040780;28;20025;-51
2024/04/03 03:10:47;;;;;;;8.68;3.55;;;9.90;99.90;;;;;;5040611;28;20102;-52
2024/04/03 03:13:12;;;;;;;6.90;3.95;;;9.90;99.90;;;;;;5041167;28;20045;-55
2024/04/03 03:15:38;;;;;;;8.77;4.03;;;9.90;99.90;;;;;;5042548;28;20033;-52
2024/04/03 03:18:04;;;;;;;5.10;3.63;;;9.90;99.90;;;;;;5040900;28;20025;-52
2024/04/03 03:20:29;;;;;;;6.15;3.65;;;9.90;99.90;;;;;;5036499;28;20033;-55
2024/04/03 03:22:55;;;;;;;5.50;3.75;;;9.90;99.90;;;;;;5038754;28;20079;-52
2024/04/03 03:25:20;;;;;;;6.70;3.53;;;9.90;99.90;;;;;;5034132;28;20021;-51
2024/04/03 03:27:45;;;;;;;7.55;3.60;;;9.90;99.90;;;;;;5040574;28;20536;-51
2024/04/03 03:30:11;;;;;;;5.75;3.90;;;9.90;99.90;;;;;;5039030;28;20033;-54
2024/04/03 03:32:36;;;;;;;5.32;3.70;;;10.00;99.90;;;;;;5035752;28;20044;-51
2024/04/03 03:35:02;;;;;;;6.15;3.30;;;9.90;99.90;;;;;;5039113;28;20086;-52
2024/04/03 03:37:28;;;;;;;7.70;3.85;;;9.90;99.90;;;;;;5040612;28;20032;-51
2024/04/03 03:39:53;;;;;;;6.78;3.85;;;9.90;99.90;;;;;;5036862;28;20037;-53
2024/04/03 03:42:19;;;;;;;7.50;3.85;;;9.90;99.90;;;;;;5031921;28;20030;-52
2024/04/03 03:44:44;;;;;;;5.88;3.92;;;9.90;99.90;;;;;;5037974;28;20108;-50
2024/04/03 03:47:10;;;;;;;7.18;4.53;;;9.90;99.90;;;;;;5031869;28;20517;-50
2024/04/03 03:52:40;;;;;;;9.30;4.25;;;9.80;99.90;;;;;;5037322;28;20043;-54
2024/04/03 03:55:06;;;;;;;7.55;3.95;;;9.80;99.90;;;;;;5040526;28;20998;-54
2024/04/03 03:57:31;;;;;;;5.40;4.03;;;9.80;99.90;;;;;;5035628;28;20017;-55
2024/04/03 03:59:57;;;;;;;7.53;4.18;;;9.80;99.90;;;;;;5037438;28;20029;-55
2024/04/03 04:02:24;;;;;;;6.60;3.60;;;9.80;99.90;;;;;;5033578;28;20070;-52
2024/04/03 04:04:50;;;;;;;8.00;3.63;;;9.80;99.90;;;;;;5031712;28;20083;-55
2024/04/03 04:07:19;;;;;;;5.53;3.55;;;9.70;99.90;;;;;;5037461;28;20554;-54
2024/04/03 04:09:52;;;;;;;6.05;3.83;;;9.70;99.90;;;;;;5037137;28;20053;-53
2024/04/03 04:12:18;;;;;;;5.03;3.25;;;9.70;99.90;;;;;;5032160;28;20377;-52
2024/04/03 04:14:49;;;;;;;4.90;3.10;;;9.70;99.90;;;;;;5040160;28;20029;-51
2024/04/03 04:17:15;;;;;;;4.15;2.88;;;9.70;99.90;;;;;;5041579;28;20031;-54
2024/04/03 04:19:40;;;;;;;8.63;2.90;;;9.70;99.90;;;;;;5035112;28;20017;-50
2024/04/03 04:22:06;;;;;;;4.47;3.00;;;9.70;99.90;;;;;;5050771;28;20036;-51
2024/04/03 04:24:32;;;;;;;4.00;2.15;;;9.60;99.90;;;;;;5039672;28;20175;-53
2024/04/03 04:27:01;;;;;;;5.13;2.40;;;9.60;99.90;;;;;;5034862;28;20031;-54
2024/04/03 04:29:28;;;;;;;4.93;2.78;;;9.60;99.90;;;;;;5033989;28;20025;-55
2024/04/03 04:31:54;;;;;;;5.68;2.67;;;9.60;99.90;;;;;;5031232;28;20045;-55
2024/04/03 04:34:19;;;;;;;7.18;2.58;;;9.60;99.90;;;;;;5040843;28;20097;-50
2024/04/03 04:36:45;;;;;;;4.22;2.50;;;9.60;99.90;;;;;;5038574;28;20427;-54
2024/04/03 04:39:10;;;;;;;5.15;2.33;;;9.60;99.90;;;;;;5032939;28;20032;-55
2024/04/03 04:41:36;;;;;;;3.30;1.92;;;9.60;99.90;;;;;;5039283;28;20025;-52
2024/04/03 04:44:02;;;;;;;5.15;2.38;;;9.50;99.90;;;;;;5039360;28;20431;-51
2024/04/03 04:46:27;;;;;;;3.83;2.22;;;9.60;99.90;;;;;;5039393;28;20558;-55
2024/04/03 04:48:53;;;;;;;3.25;2.47;;;9.50;99.90;;;;;;5041099;28;20352;-50
2024/04/03 04:51:19;;;;;;;2.75;2.38;;;9.50;99.90;;;;;;5039664;28;20086;-54
2024/04/03 04:53:45;;;;;;;4.30;2.20;;;9.50;99.90;;;;;;5034948;28;20468;-51
2024/04/03 04:56:10;;;;;;;6.30;2.45;;;9.60;99.90;;;;;;5033113;28;20237;-53
2024/04/03 04:58:36;;;;;;;4.40;1.75;;;9.60;99.90;;;;;;5032897;28;20041;-54
2024/04/03 05:01:06;;;;;;;3.40;1.88;;;9.60;99.90;;;;;;5037809;28;20175;-53
2024/04/03 05:03:32;;;;;;;4.90;2.42;;;9.60;99.90;;;;;;5038893;28;20301;-54
2024/04/03 05:05:58;;;;;;;3.95;2.40;;;9.60;99.90;;;;;;5040935;28;20021;-53
2024/04/03 05:08:24;;;;;;;5.25;2.35;;;9.60;99.90;;;;;;5038764;28;20017;-55
2024/04/03 05:10:56;;;;;;;5.60;2.40;;;9.70;99.90;;;;;;5030699;28;20452;-53
2024/04/03 05:13:30;;;;;;;5.55;2.30;;;9.80;99.90;;;;;;5034871;28;20071;-55
2024/04/03 05:15:56;;;;;;;4.60;2.60;;;9.90;99.90;;;;;;5039298;28;20025;-54
2024/04/03 05:18:21;;;;;;;6.38;3.10;;;10.00;99.90;;;;;;5038815;28;20064;-54
2024/04/03 05:20:47;;;;;;;4.50;2.38;;;10.00;99.90;;;;;;5034694;28;20061;-53
2024/04/03 05:23:13;;;;;;;7.05;2.47;;;10.00;99.90;;;;;;5038184;28;20417;-52
2024/04/03 05:25:38;;;;;;;3.97;2.97;;;10.00;99.90;;;;;;5038375;28;20240;-53
2024/04/03 05:28:04;;;;;;;4.10;2.83;;;10.00;99.90;;;;;;5040576;28;20072;-53
2024/04/03 05:30:34;;;;;;;3.05;2.20;;;10.10;99.90;;;;;;5038854;28;20135;-54
2024/04/03 05:32:59;;;;;;;4.07;2.15;;;10.10;99.90;;;;;;5038709;28;20025;-53
2024/04/03 05:35:25;;;;;;;3.03;2.22;;;10.20;99.90;;;;;;5038673;28;20041;-54
2024/04/03 05:37:51;;;;;;;3.60;2.10;;;10.30;99.90;;;;;;5038821;28;20068;-53
2024/04/03 05:40:17;;;;;;;7.68;2.58;;;10.40;99.90;;;;;;5035294;28;20033;-54
2024/04/03 05:42:42;;;;;;;4.45;2.42;;;10.40;99.90;;;;;;5038783;28;20025;-52
2024/04/03 05:45:08;;;;;;;7.75;2.60;;;10.50;99.90;;;;;;5040547;28;20021;-54
2024/04/03 05:47:35;;;;;;;5.57;2.40;;;10.60;99.90;;;;;;5038559;28;20025;-53
2024/04/03 05:50:07;;;;;;;4.80;1.88;;;10.70;99.90;;;;;;5038949;28;20880;-53
2024/04/03 05:52:33;;;;;;;4.63;2.53;;;10.80;99.90;;;;;;5038659;28;20040;-51
2024/04/03 05:55:00;;;;;;;4.10;2.50;;;10.70;99.90;;;;;;5038407;28;20036;-55
2024/04/03 05:57:25;;;;;;;4.90;2.60;;;10.60;99.90;;;;;;5038648;28;20029;-52
2024/04/03 05:59:50;;;;;;;3.63;2.50;;;10.50;99.90;;;;;;5037875;28;20053;-55
2024/04/03 06:02:16;;;;;;;4.68;2.92;;;10.60;99.90;;;;;;5043326;28;20370;-55
2024/04/03 06:04:41;;;;;;;3.22;2.20;;;10.60;99.90;;;;;;5036637;28;20548;-52
2024/04/03 06:07:07;;;;;;;4.97;2.03;;;10.60;99.90;;;;;;5038415;28;20485;-51
2024/04/03 06:09:32;;;;;;;5.80;2.20;;;10.50;99.90;;;;;;5034322;28;20045;-50
2024/04/03 06:11:58;;;;;;;4.68;2.17;;;10.50;99.90;;;;;;5036776;28;20075;-55
2024/04/03 06:14:23;;;;;;;4.50;2.50;;;10.40;99.90;;;;;;5031565;28;20025;-49
2024/04/03 06:16:49;;;;;;;5.97;2.50;;;10.40;99.90;;;;;;5034767;28;20036;-55
2024/04/03 06:19:15;;;;;;;8.90;2.60;;;10.40;99.90;;;;;;5038381;28;20028;-55
2024/04/03 06:21:41;;;;;;;5.43;2.50;;;10.50;99.90;;;;;;5053650;28;20047;-55
2024/04/03 06:24:06;;;;;;;4.22;2.03;;;10.70;99.90;;;;;;5042157;28;20176;-55
2024/04/03 06:26:33;;;;;;;5.05;2.70;;;10.70;99.90;;;;;;5041648;28;20037;-54
2024/04/03 06:29:02;;;;;;;5.72;3.13;;;10.80;99.90;;;;;;5041814;28;20036;-52
2024/04/03 06:31:29;;;;;;;6.63;2.60;;;10.80;99.90;;;;;;5033559;28;20033;-52
2024/04/03 06:33:59;;;;;;;6.53;2.60;;;10.90;99.90;;;;;;5037238;28;20017;-53
2024/04/03 06:36:29;;;;;;;6.65;2.92;;;10.90;99.90;;;;;;5035519;28;20017;-49
2024/04/03 06:38:54;;;;;;;5.47;2.72;;;10.80;99.80;;;;;;5039688;28;20029;-53
2024/04/03 06:41:19;;;;;;;4.80;2.70;;;10.90;99.30;;;;;;5034866;28;20059;-51
2024/04/03 06:43:45;;;;;;;4.40;3.13;;;11.30;98.20;;;;;;5041455;28;20029;-51
2024/04/03 06:46:10;;;;;;;6.45;3.25;;;11.50;97.00;;;;;;5037304;28;20041;-51
2024/04/03 06:48:36;;;;;;;5.22;3.28;;;11.40;96.60;;;;;;5041583;28;20037;-54
2024/04/03 06:51:03;;;;;;;4.72;2.78;;;11.30;96.60;;;;;;5037314;28;20044;-51
2024/04/03 06:53:29;;;;;;;6.20;3.40;;;11.30;96.20;;;;;;5043139;28;20569;-54
2024/04/03 06:55:59;;;;;;;6.07;2.97;;;11.60;95.30;;;;;;5037445;28;20032;-50
2024/04/03 06:58:26;;;;;;;3.65;2.80;;;11.60;94.00;;;;;;5036913;28;20040;-54
2024/04/03 07:00:52;;;;;;;5.38;2.80;;;12.20;93.80;;;;;;5037145;28;20509;-52
2024/04/03 07:03:17;;;;;;;4.35;3.00;;;12.90;92.80;;;;;;5037177;28;20111;-52
2024/04/03 07:05:44;;;;;;;5.28;3.35;;;12.60;92.30;;;;;;5035249;28;20036;-50
2024/04/03 07:08:13;;;;;;;3.50;2.78;;;12.50;90.90;;;;;;5038972;28;20021;-50
2024/04/03 07:10:39;;;;;;;5.95;3.00;;;12.60;91.80;;;;;;5040800;28;20059;-54
2024/04/03 07:13:05;;;;;;;4.35;2.58;;;12.60;91.50;;;;;;5042857;28;20025;-51
2024/04/03 07:15:33;;;;;;;5.68;3.42;;;12.50;91.00;;;;;;5033887;28;20047;-52
2024/04/03 07:18:00;;;;;;;6.00;3.67;;;12.40;91.00;;;;;;5036694;28;20025;-49
2024/04/03 07:20:28;;;;;;;5.00;3.10;;;12.20;89.70;;;;;;5041062;28;20510;-51
2024/04/03 07:22:56;;;;;;;4.72;2.75;;;11.90;90.20;;;;;;5040784;28;20131;-53
2024/04/03 07:25:22;;;;;;;4.25;2.47;;;12.10;90.00;;;;;;5040916;28;20527;-54
2024/04/03 07:27:48;;;;;;;5.00;2.80;;;12.30;90.50;;;;;;5037742;28;20039;-49
2024/04/03 07:30:13;;;;;;;4.07;2.58;;;12.40;89.80;;;;;;5036015;28;20033;-58
2024/04/03 07:32:40;;;;;;;5.03;2.63;;;13.00;89.90;;;;;;5036932;28;20241;-58
2024/04/03 07:35:06;;;;;;;4.38;2.45;;;13.10;88.70;;;;;;5035879;28;20029;-55
2024/04/03 07:37:31;;;;;;;5.35;2.65;;;13.00;88.80;;;;;;5035174;28;20452;-56
2024/04/03 07:39:57;;;;;;;3.47;2.53;;;12.90;86.40;;;;;;5031184;28;20037;-56
2024/04/03 07:42:22;;;;;;;3.30;2.42;;;12.70;87.40;;;;;;5033224;28;20460;-56
2024/04/03 07:44:50;;;;;;;5.28;3.20;;;12.50;84.20;;;;;;5038048;28;20017;-56
2024/04/03 07:47:15;;;;;;;4.85;3.08;;;12.40;85.00;;;;;;5033066;28;20033;-57
2024/04/03 07:49:41;;;;;;;3.92;2.67;;;12.40;85.60;;;;;;5040738;28;20443;-56
2024/04/03 07:52:06;;;;;;;3.20;2.25;;;12.40;85.10;;;;;;5034946;28;20076;-56
2024/04/03 07:54:32;;;;;;;5.57;3.35;;;12.40;84.50;;;;;;5034472;28;20029;-56
2024/04/03 07:56:57;;;;;;;4.22;2.85;;;12.50;85.00;;;;;;5035519;28;20108;-57
2024/04/03 07:59:23;;;;;;;3.85;2.72;;;12.40;84.40;;;;;;5038617;28;20036;-55
2024/04/03 08:01:48;;;;;;;3.85;2.60;;;12.50;84.30;;;;;;5035043;28;20482;-56
2024/04/03 08:04:14;;;;;;;3.63;2.55;;;12.60;82.90;;;;;;5034255;28;20040;-55
2024/04/03 08:06:40;;;;;;;5.00;3.05;;;13.00;82.90;;;;;;5037766;28;20074;-57
2024/04/03 08:09:06;;;;;;;4.03;3.00;;;13.40;82.20;;;;;;5024182;28;20393;-56
2024/04/03 08:11:32;;;;;;;4.07;2.92;;;13.30;79.90;;;;;;5034886;28;20036;-56
2024/04/03 08:13:59;;;;;;;3.70;2.85;;;13.10;80.00;;;;;;5032229;28;20481;-55
2024/04/03 08:16:24;;;;;;;5.10;3.00;;;12.90;80.50;;;;;;5038358;28;20025;-57
2024/04/03 08:18:50;;;;;;;3.83;2.47;;;13.20;80.00;;;;;;5040415;28;20082;-56
2024/04/03 08:21:16;;;;;;;5.82;2.85;;;13.10;80.80;;;;;;5030033;28;20485;-56
2024/04/03 08:23:41;;;;;;;4.60;3.03;;;12.90;79.30;;;;;;5033848;28;20036;-56
2024/04/03 08:26:10;;;;;;;6.00;3.63;;;12.90;79.50;;;;;;5029810;28;20029;-57
2024/04/03 08:28:36;;;;;;;4.30;3.35;;;13.10;79.20;;;;;;5027626;28;20024;-58
2024/04/03 08:31:02;;;;;;;4.65;2.97;;;13.10;79.30;;;;;;5025674;28;20025;-58
2024/04/03 08:33:28;;;;;;;4.13;2.97;;;13.10;78.80;;;;;;5029705;28;20039;-56
2024/04/03 08:36:03;;;;;;;5.55;2.75;;;13.00;78.10;;;;;;5031368;28;20025;-55
2024/04/03 08:38:29;;;;;;;4.10;2.97;;;13.20;77.70;;;;;;5031756;28;20437;-54
2024/04/03 08:40:59;;;;;;;4.40;2.67;;;13.70;77.90;;;;;;5025813;28;20103;-57
2024/04/03 08:43:25;;;;;;;3.60;2.97;;;13.90;78.40;;;;;;5032819;28;20033;-56
2024/04/03 08:45:53;;;;;;;4.35;2.90;;;14.60;77.40;;;;;;5036518;28;20039;-56
2024/04/03 08:48:22;;;;;;;3.55;2.75;;;15.40;76.90;;;;;;5036776;28;20032;-57
2024/04/03 08:50:52;;;;;;;5.57;2.67;;;16.00;76.60;;;;;;5037140;28;20032;-56
2024/04/03 08:53:23;;;;;;;3.78;2.90;;;16.60;74.20;;;;;;5034016;28;20041;-61
2024/04/03 08:55:49;;;;;;;4.90;2.60;;;16.90;74.60;;;;;;5030481;28;20021;-61
2024/04/03 08:58:16;;;;;;;5.15;2.88;;;17.10;73.90;;;;;;5032393;28;20055;-61
2024/04/03 09:00:43;;;;;;;4.07;2.55;;;17.40;72.40;;;;;;5037763;28;20594;-60
2024/04/03 09:03:11;;;;;;;4.38;2.55;;;17.40;71.60;;;;;;5037034;28;20028;-60
2024/04/03 09:05:36;;;;;;;5.57;3.25;;;17.60;70.60;;;;;;5036600;28;20489;-60
2024/04/03 09:08:07;;;;;;;3.75;2.85;;;17.30;69.60;;;;;;5037418;28;20033;-60
2024/04/03 09:10:47;;;;;;;4.85;2.33;;;17.30;67.70;;;;;;5032488;28;20040;-60
2024/04/03 09:13:13;;;;;;;3.42;2.65;;;17.20;67.50;;;;;;5035270;28;20095;-60
2024/04/03 09:15:38;;;;;;;3.08;2.38;;;17.00;66.20;;;;;;5036736;28;20040;-60
2024/04/03 09:18:06;;;;;;;4.30;2.45;;;17.40;66.00;;;;;;5039490;28;20044;-60
2024/04/03 09:20:32;;;;;;;5.50;2.47;;;17.10;65.10;;;;;;5032001;28;20021;-59
2024/04/03 09:22:58;;;;;;;5.22;3.00;;;16.90;62.80;;;;;;5033360;28;20047;-60
2024/04/03 09:25:28;;;;;;;4.93;2.85;;;16.70;63.70;;;;;;5033624;28;20437;-60
2024/04/03 09:28:03;;;;;;;4.57;2.45;;;16.60;64.00;;;;;;5035448;28;20079;-60
2024/04/03 09:30:30;;;;;;;3.08;2.35;;;16.70;63.70;;;;;;5035168;28;20053;-60
2024/04/03 09:33:03;;;;;;;2.92;2.20;;;16.70;63.80;;;;;;5040199;28;20037;-60
2024/04/03 09:35:34;;;;;;;4.43;2.50;;;16.90;62.20;;;;;;5032275;28;20052;-60
2024/04/03 09:37:59;;;;;;;3.58;2.50;;;16.80;62.80;;;;;;5034105;28;20096;-60
2024/04/03 09:40:30;;;;;;;3.65;2.35;;;16.40;62.30;;;;;;5035104;28;20450;-60
2024/04/03 09:43:05;;;;;;;3.25;2.65;;;16.10;63.40;;;;;;5038929;28;20104;-60
2024/04/03 09:45:31;;;;;;;2.85;2.40;;;15.80;63.20;;;;;;5029271;28;20075;-60
2024/04/03 09:48:05;;;;;;;3.03;2.30;;;15.70;63.40;;;;;;5038871;28;20032;-60
2024/04/03 09:50:45;;;;;;;4.07;2.50;;;15.70;63.00;;;;;;5034738;28;20025;-60
2024/04/03 09:53:23;;;;;;;4.00;3.05;;;15.60;61.40;;;;;;5042395;28;20516;-60
2024/04/03 09:55:51;;;;;;;4.38;2.20;;;15.20;61.60;;;;;;5038700;28;20021;-60
2024/04/03 09:58:21;;;;;;;5.85;3.83;;;15.10;62.60;;;;;;5038389;28;20072;-60
2024/04/03 10:01:00;;;;;;;4.10;2.95;;;15.10;63.00;;;;;;5035197;28;20013;-59
2024/04/03 10:03:30;;;;;;;7.05;3.80;;;15.00;62.10;;;;;;5036459;28;20112;-60
2024/04/03 10:05:59;;;;;;;7.13;4.78;;;15.00;62.80;;;;;;5042514;28;20070;-59
2024/04/03 10:08:32;;;;;;;7.88;4.70;;;15.20;62.70;;;;;;5036747;28;20494;-60
2024/04/03 10:10:58;;;;;;;6.97;4.47;;;15.40;63.30;;;;;;5036531;28;20071;-60
2024/04/03 10:13:26;;;;;;;13.38;7.72;;;15.40;62.30;;;;;;5033706;28;20025;-60
2024/04/03 10:16:20;;;;;;;12.93;7.65;;;15.60;61.80;;;;;;5041527;28;20036;-59
2024/04/03 10:18:51;;;;;;;12.27;7.57;;;15.90;61.00;;;;;;5046178;28;20120;-60
2024/04/03 10:21:19;;;;;;;8.15;5.10;;;16.00;61.60;;;;;;5035790;28;20024;-60
2024/04/03 10:23:50;;;;;;;8.40;4.30;;;16.10;61.00;;;;;;5033693;28;20013;-60
2024/04/03 10:26:17;;;;;;;5.30;4.00;;;16.10;60.90;;;;;;5041730;28;20028;-61
2024/04/03 10:28:45;;;;;;;5.13;3.10;;;16.30;60.60;;;;;;5037928;28;20529;-60
2024/04/03 10:31:15;;;;;;;4.97;2.65;;;16.20;60.90;;;;;;5041876;28;20029;-60
2024/04/03 10:33:41;;;;;;;5.38;3.10;;;16.20;60.80;;;;;;5040189;28;20080;-60
2024/04/03 10:36:08;;;;;;;3.45;2.20;;;16.10;60.20;;;;;;5052916;28;20040;-60
2024/04/03 10:38:35;;;;;;;3.90;2.90;;;16.10;60.80;;;;;;5041467;28;20025;-59
2024/04/03 10:41:01;;;;;;;4.50;2.72;;;15.80;60.40;;;;;;5035296;28;20049;-60
2024/04/03 10:43:26;;;;;;;3.67;2.25;;;15.70;60.70;;;;;;5041781;28;20049;-60
2024/04/03 10:45:53;;;;;;;4.40;2.95;;;15.60;60.60;;;;;;5035900;28;20034;-60
2024/04/03 10:48:20;;;;;;;2.97;2.50;;;15.50;60.60;;;;;;5041295;28;20029;-61
2024/04/03 10:50:47;;;;;;;5.57;2.38;;;15.50;60.70;;;;;;5037473;28;20059;-61
2024/04/03 10:53:13;;;;;;;2.20;2.00;;;15.40;60.90;;;;;;5035181;28;20089;-60
2024/04/03 10:55:39;;;;;;;3.13;2.33;;;15.50;61.20;;;;;;5037976;28;20037;-62
2024/04/03 10:58:06;;;;;;;4.00;2.40;;;15.50;61.10;;;;;;5038605;28;20175;-58
2024/04/03 11:00:33;;;;;;;2.13;1.90;;;15.70;61.00;;;;;;5033181;28;20032;-58
2024/04/03 11:02:59;;;;;;;3.58;2.50;;;15.80;60.80;;;;;;5043108;28;20054;-59
2024/04/03 11:05:27;;;;;;;3.60;2.28;;;15.80;60.40;;;;;;5041505;28;20482;-58
2024/04/03 11:07:52;;;;;;;3.67;2.80;;;15.80;60.20;;;;;;5037031;28;20103;-58
2024/04/03 11:10:20;;;;;;;2.88;2.47;;;15.80;59.80;;;;;;5041001;28;20163;-59
2024/04/03 11:12:47;;;;;;;3.40;3.08;;;15.90;60.00;;;;;;5041012;28;20022;-58
2024/04/03 11:15:13;;;;;;;4.85;2.60;;;15.80;60.00;;;;;;5039809;28;20401;-58
2024/04/03 11:17:39;;;;;;;4.43;2.80;;;15.70;60.30;;;;;;5034411;28;20013;-58
2024/04/03 11:20:06;;;;;;;4.20;2.70;;;15.80;60.60;;;;;;5037159;28;20032;-58
2024/04/03 11:22:31;;;;;;;7.93;2.85;;;16.10;60.40;;;;;;5041181;28;20122;-58
2024/04/03 11:24:57;;;;;;;8.27;3.22;;;16.40;59.70;;;;;;5034736;28;20036;-59
2024/04/03 11:27:22;;;;;;;5.35;2.97;;;16.50;59.30;;;;;;5036899;28;20033;-58
2024/04/03 11:29:48;;;;;;;2.38;2.17;;;16.60;59.00;;;;;;5038499;28;20025;-58
2024/04/03 11:32:17;;;;;;;3.63;2.35;;;16.60;59.00;;;;;;5034134;28;20037;-59
2024/04/03 11:34:42;;;;;;;4.47;2.58;;;16.60;59.00;;;;;;5041134;28;20453;-59
2024/04/03 11:37:08;;;;;;;3.72;2.67;;;16.70;58.70;;;;;;5039139;28;20043;-59
2024/04/03 11:39:34;;;;;;;3.90;3.40;;;16.70;58.80;;;;;;5039326;28;20053;-59
2024/04/03 11:42:01;;;;;;;4.57;2.80;;;16.60;59.10;;;;;;5037436;28;20029;-58
2024/04/03 11:44:27;;;;;;;4.25;3.17;;;16.50;59.20;;;;;;5035549;28;20511;-59
2024/04/03 11:46:52;;;;;;;4.57;2.75;;;16.30;59.20;;;;;;5040731;28;20111;-59
2024/04/03 11:49:18;;;;;;;4.43;2.80;;;16.20;59.20;;;;;;5040471;28;20047;-59
2024/04/03 11:51:43;;;;;;;4.47;2.80;;;16.00;59.50;;;;;;5040332;28;20028;-59
2024/04/03 11:54:09;;;;;;;2.55;2.35;;;15.80;59.90;;;;;;5042496;28;20521;-59
2024/04/03 11:56:35;;;;;;;3.90;2.78;;;15.70;60.10;;;;;;5036229;28;20029;-59
2024/04/03 11:59:00;;;;;;;5.15;2.90;;;15.70;60.40;;;;;;5035232;28;20864;-59
2024/04/03 12:01:26;;;;;;;5.00;3.25;;;15.60;60.50;;;;;;5032771;28;20031;-58
2024/04/03 12:03:52;;;;;;;6.25;4.13;;;15.50;60.40;;;;;;5034288;28;20121;-58
2024/04/03 12:06:17;;;;;;;6.28;3.70;;;15.40;60.70;;;;;;5049126;28;20027;-58
2024/04/03 12:08:49;;;;;;;7.63;4.45;;;15.30;61.20;;;;;;5032824;28;20074;-58
2024/04/03 12:11:15;;;;;;;3.78;3.17;;;15.30;61.70;;;;;;5030046;28;20045;-59
2024/04/03 12:13:41;;;;;;;3.72;3.08;;;15.30;62.00;;;;;;5038575;28;20481;-58
2024/04/03 12:16:06;;;;;;;6.03;3.28;;;15.20;62.20;;;;;;5035901;28;20040;-59
2024/04/03 12:18:48;;;;;;;9.30;5.40;;;15.10;62.50;;;;;;5036113;28;20437;-58
2024/04/03 12:21:14;;;;;;;6.80;4.20;;;14.80;63.20;;;;;;5033098;28;20032;-59
2024/04/03 12:23:42;;;;;;;5.50;3.47;;;14.70;64.50;;;;;;5031413;28;20077;-59
2024/04/03 12:26:08;;;;;;;6.53;4.25;;;14.50;64.80;;;;;;5030753;28;20124;-58
2024/04/03 12:28:34;;;;;;;7.78;5.45;;;14.40;65.30;;;;;;5035709;28;20025;-58
2024/04/03 12:30:59;;;;;;;5.47;4.28;;;14.20;66.60;;;;;;5036296;28;20094;-58
2024/04/03 12:33:25;;;;;;;8.40;4.75;;;14.10;67.40;;;;;;5051154;28;20060;-58
2024/04/03 12:35:50;;;;;;;5.90;3.90;;;14.10;67.70;;;;;;5041643;28;20057;-58
2024/04/03 12:38:16;;;;;;;6.22;3.63;;;14.20;68.10;;;;;;5035093;28;20595;-58
2024/04/03 12:40:42;;;;;;;8.00;4.47;;;14.30;68.30;;;;;;5032586;28;20028;-59
2024/04/03 12:43:10;;;;;;;7.80;4.78;;;14.40;68.50;;;;;;5035677;28;20120;-60
2024/04/03 12:45:35;;;;;;;7.38;4.57;;;14.40;69.00;;;;;;5037807;28;20028;-60
2024/04/03 12:48:03;;;;;;;8.55;5.35;;;14.50;69.30;;;;;;5035561;28;20025;-59